sensor_id;sensor_type;location;lat;lon;timestamp;pressure;altitude;pressure_sealevel;temperature;humidity
10712;BME280;5407;51.234;6.804;2023-04-01T00:00:06;98863.72;;;24.25;39.58
10712;BME280;5407;51.234;6.804;2023-04-01T00:02:38;98859.72;;;24.26;39.59
10712;BME280;5407;51.234;6.804;2023-04-01T00:05:08;98861.47;;;24.24;39.73
10712;BME280;5407;51.234;6.804;2023-04-01T00:07:37;98867.25;;;24.26;39.80
10712;BME280;5407;51.234;6.804;2023-04-01T00:10:05;98865.25;;;24.26;39.88
10712;BME280;5407;51.234;6.804;2023-04-01T00:12:32;98859.44;;;24.24;39.70
10712;BME280;5407;51.234;6.804;2023-04-01T00:14:59;98864.22;;;24.24;39.83
10712;BME280;5407;51.234;6.804;2023-04-01T00:17:26;98870.19;;;24.22;40.09
10712;BME280;5407;51.234;6.804;2023-04-01T00:19:55;98863.44;;;24.23;39.89
10712;BME280;5407;51.234;6.804;2023-04-01T00:22:24;98870.47;;;24.24;39.86
10712;BME280;5407;51.234;6.804;2023-04-01T00:24:52;98862.22;;;24.24;40.09
10712;BME280;5407;51.234;6.804;2023-04-01T00:27:19;98863.44;;;24.23;39.88
10712;BME280;5407;51.234;6.804;2023-04-01T00:29:46;98856.41;;;24.22;39.99
10712;BME280;5407;51.234;6.804;2023-04-01T00:32:14;98854.91;;;24.21;39.81
10712;BME280;5407;51.234;6.804;2023-04-01T00:34:41;98855.19;;;24.23;39.62
10712;BME280;5407;51.234;6.804;2023-04-01T00:37:09;98855.19;;;24.23;39.70
10712;BME280;5407;51.234;6.804;2023-04-01T00:39:38;98853.38;;;24.20;39.75
10712;BME280;5407;51.234;6.804;2023-04-01T00:42:05;98851.41;;;24.21;39.85
10712;BME280;5407;51.234;6.804;2023-04-01T00:44:33;98848.63;;;24.21;39.79
10712;BME280;5407;51.234;6.804;2023-04-01T00:47:01;98849.38;;;24.21;39.84
10712;BME280;5407;51.234;6.804;2023-04-01T00:49:30;98846.34;;;24.19;39.80
10712;BME280;5407;51.234;6.804;2023-04-01T00:52:00;98840.84;;;24.19;39.78
10712;BME280;5407;51.234;6.804;2023-04-01T00:54:29;98857.38;;;24.19;39.99
10712;BME280;5407;51.234;6.804;2023-04-01T00:57:00;98847.88;;;24.20;40.03
10712;BME280;5407;51.234;6.804;2023-04-01T00:59:30;98845.09;;;24.20;40.06
10712;BME280;5407;51.234;6.804;2023-04-01T01:01:58;98842.34;;;24.20;39.69
10712;BME280;5407;51.234;6.804;2023-04-01T01:04:27;98838.84;;;24.20;39.63
10712;BME280;5407;51.234;6.804;2023-04-01T01:07:03;98844.81;;;24.18;40.01
10712;BME280;5407;51.234;6.804;2023-04-01T01:09:41;98844.81;;;24.18;39.89
10712;BME280;5407;51.234;6.804;2023-04-01T01:12:14;98836.56;;;24.18;39.78
10712;BME280;5407;51.234;6.804;2023-04-01T01:14:51;98842.06;;;24.18;39.76
10712;BME280;5407;51.234;6.804;2023-04-01T01:17:28;98840.09;;;24.19;39.87
10712;BME280;5407;51.234;6.804;2023-04-01T01:23:28;98833.06;;;24.18;39.84
10712;BME280;5407;51.234;6.804;2023-04-01T01:26:20;98841.78;;;24.16;39.81
10712;BME280;5407;51.234;6.804;2023-04-01T01:29:01;98840.28;;;24.15;39.80
10712;BME280;5407;51.234;6.804;2023-04-01T01:31:36;98824.22;;;24.14;39.82
10712;BME280;5407;51.234;6.804;2023-04-01T01:34:14;98827.72;;;24.14;39.82
10712;BME280;5407;51.234;6.804;2023-04-01T01:36:50;98833.25;;;24.14;39.69
10712;BME280;5407;51.234;6.804;2023-04-01T01:39:21;98830.19;;;24.12;39.74
10712;BME280;5407;51.234;6.804;2023-04-01T01:41:55;98830.97;;;24.13;39.93
10712;BME280;5407;51.234;6.804;2023-04-01T01:44:24;98831.72;;;24.13;39.78
10712;BME280;5407;51.234;6.804;2023-04-01T01:46:53;98829.44;;;24.12;39.93
10712;BME280;5407;51.234;6.804;2023-04-01T01:49:20;98833.72;;;24.13;39.92
10712;BME280;5407;51.234;6.804;2023-04-01T01:51:49;98830.19;;;24.12;39.76
10712;BME280;5407;51.234;6.804;2023-04-01T01:54:17;98828.22;;;24.13;39.80
10712;BME280;5407;51.234;6.804;2023-04-01T01:56:46;98824.69;;;24.12;39.77
10712;BME280;5407;51.234;6.804;2023-04-01T01:59:17;98831.44;;;24.11;39.74
10712;BME280;5407;51.234;6.804;2023-04-01T02:01:49;98827.91;;;24.11;39.75
10712;BME280;5407;51.234;6.804;2023-04-01T02:04:18;98830.97;;;24.13;39.73
10712;BME280;5407;51.234;6.804;2023-04-01T02:06:49;98829.44;;;24.12;39.85
10712;BME280;5407;51.234;6.804;2023-04-01T02:09:18;98834.19;;;24.11;39.91
10712;BME280;5407;51.234;6.804;2023-04-01T02:11:48;98830.19;;;24.12;39.86
10712;BME280;5407;51.234;6.804;2023-04-01T02:14:18;98827.16;;;24.10;39.86
10712;BME280;5407;51.234;6.804;2023-04-01T02:16:51;98827.91;;;24.11;39.75
10712;BME280;5407;51.234;6.804;2023-04-01T02:19:22;98825.94;;;24.11;40.03
10712;BME280;5407;51.234;6.804;2023-04-01T02:21:55;98838.19;;;24.10;39.88
10712;BME280;5407;51.234;6.804;2023-04-01T02:24:25;98826.38;;;24.10;39.95
10712;BME280;5407;51.234;6.804;2023-04-01T02:26:53;98833.91;;;24.09;40.01
10712;BME280;5407;51.234;6.804;2023-04-01T02:29:24;98831.91;;;24.10;39.93
10712;BME280;5407;51.234;6.804;2023-04-01T02:31:52;98832.38;;;24.08;39.85
10712;BME280;5407;51.234;6.804;2023-04-01T02:34:21;98824.88;;;24.09;39.77
10712;BME280;5407;51.234;6.804;2023-04-01T02:36:49;98840.66;;;24.08;39.95
10712;BME280;5407;51.234;6.804;2023-04-01T02:39:18;98833.63;;;24.07;39.97
10712;BME280;5407;51.234;6.804;2023-04-01T02:41:46;98834.88;;;24.06;39.91
10712;BME280;5407;51.234;6.804;2023-04-01T02:44:15;98835.59;;;24.07;39.85
10712;BME280;5407;51.234;6.804;2023-04-01T02:46:43;98831.34;;;24.06;39.82
10712;BME280;5407;51.234;6.804;2023-04-01T02:49:10;98829.34;;;24.06;39.72
10712;BME280;5407;51.234;6.804;2023-04-01T02:51:37;98836.09;;;24.05;39.79
10712;BME280;5407;51.234;6.804;2023-04-01T02:54:04;98833.34;;;24.05;39.88
10712;BME280;5407;51.234;6.804;2023-04-01T02:56:32;98847.13;;;24.05;39.96
10712;BME280;5407;51.234;6.804;2023-04-01T02:58:59;98848.34;;;24.04;39.78
10712;BME280;5407;51.234;6.804;2023-04-01T03:01:26;98848.81;;;24.03;39.94
10712;BME280;5407;51.234;6.804;2023-04-01T03:03:53;98848.06;;;24.02;39.87
10712;BME280;5407;51.234;6.804;2023-04-01T03:06:20;98841.03;;;24.01;39.66
10712;BME280;5407;51.234;6.804;2023-04-01T03:08:47;98843.78;;;24.01;39.76
10712;BME280;5407;51.234;6.804;2023-04-01T03:11:14;98845.78;;;24.01;39.74
10712;BME280;5407;51.234;6.804;2023-04-01T03:13:43;98846.53;;;24.01;39.85
10712;BME280;5407;51.234;6.804;2023-04-01T03:16:10;98852.81;;;24.02;39.74
10712;BME280;5407;51.234;6.804;2023-04-01T03:18:37;98860.78;;;24.00;39.82
10712;BME280;5407;51.234;6.804;2023-04-01T03:21:14;98860.78;;;24.00;39.82
10712;BME280;5407;51.234;6.804;2023-04-01T03:23:41;98858.53;;;23.98;39.95
10712;BME280;5407;51.234;6.804;2023-04-01T03:26:08;98855.75;;;23.98;39.68
10712;BME280;5407;51.234;6.804;2023-04-01T03:28:35;98861.28;;;23.98;39.74
10712;BME280;5407;51.234;6.804;2023-04-01T03:31:04;98855.47;;;23.96;39.88
10712;BME280;5407;51.234;6.804;2023-04-01T03:33:39;98857.75;;;23.98;39.84
10712;BME280;5407;51.234;6.804;2023-04-01T03:36:07;98868.75;;;23.98;39.96
10712;BME280;5407;51.234;6.804;2023-04-01T03:38:34;98862.50;;;23.97;39.77
10712;BME280;5407;51.234;6.804;2023-04-01T03:41:01;98871.50;;;23.98;39.95
10712;BME280;5407;51.234;6.804;2023-04-01T03:43:29;98868.47;;;23.96;39.75
10712;BME280;5407;51.234;6.804;2023-04-01T03:45:56;98861.72;;;23.97;39.94
10712;BME280;5407;51.234;6.804;2023-04-01T03:48:25;98858.53;;;23.98;39.71
10712;BME280;5407;51.234;6.804;2023-04-01T03:50:52;98868.00;;;23.97;40.10
10712;BME280;5407;51.234;6.804;2023-04-01T03:53:19;98870.78;;;23.97;39.96
10712;BME280;5407;51.234;6.804;2023-04-01T03:55:47;98868.75;;;23.98;39.92
10712;BME280;5407;51.234;6.804;2023-04-01T03:58:14;98868.00;;;23.97;39.95
10712;BME280;5407;51.234;6.804;2023-04-01T04:00:42;98879.03;;;23.97;39.81
10712;BME280;5407;51.234;6.804;2023-04-01T04:03:09;98865.25;;;23.97;39.96
10712;BME280;5407;51.234;6.804;2023-04-01T04:05:46;98871.50;;;23.98;40.14
10712;BME280;5407;51.234;6.804;2023-04-01T04:08:13;98876.56;;;23.99;39.88
10712;BME280;5407;51.234;6.804;2023-04-01T04:10:40;98875.31;;;24.00;40.02
10712;BME280;5407;51.234;6.804;2023-04-01T04:13:07;98875.63;;;24.02;39.88
10712;BME280;5407;51.234;6.804;2023-04-01T04:15:38;98877.13;;;24.03;39.95
10712;BME280;5407;51.234;6.804;2023-04-01T04:18:06;98878.16;;;24.06;39.85
10712;BME280;5407;51.234;6.804;2023-04-01T04:20:32;98876.19;;;24.06;40.14
10712;BME280;5407;51.234;6.804;2023-04-01T04:23:02;98881.19;;;24.08;39.99
10712;BME280;5407;51.234;6.804;2023-04-01T04:25:29;98875.97;;;24.10;39.94
10712;BME280;5407;51.234;6.804;2023-04-01T04:27:55;98878.28;;;24.11;40.22
10712;BME280;5407;51.234;6.804;2023-04-01T04:30:22;98874.28;;;24.12;40.19
10712;BME280;5407;51.234;6.804;2023-04-01T04:32:49;98877.81;;;24.13;39.75
10712;BME280;5407;51.234;6.804;2023-04-01T04:35:16;98880.56;;;24.13;40.20
10712;BME280;5407;51.234;6.804;2023-04-01T04:37:43;98882.84;;;24.14;39.92
10712;BME280;5407;51.234;6.804;2023-04-01T04:40:11;98889.88;;;24.15;39.98
10712;BME280;5407;51.234;6.804;2023-04-01T04:42:38;98884.34;;;24.15;40.01
10712;BME280;5407;51.234;6.804;2023-04-01T04:45:09;98886.66;;;24.17;39.94
10712;BME280;5407;51.234;6.804;2023-04-01T04:47:41;98885.88;;;24.16;39.84
10712;BME280;5407;51.234;6.804;2023-04-01T04:50:09;98892.91;;;24.17;39.97
10712;BME280;5407;51.234;6.804;2023-04-01T04:52:38;98888.16;;;24.18;39.83
10712;BME280;5407;51.234;6.804;2023-04-01T04:55:06;98888.91;;;24.18;39.80
10712;BME280;5407;51.234;6.804;2023-04-01T04:57:34;98888.91;;;24.18;39.95
10712;BME280;5407;51.234;6.804;2023-04-01T05:00:01;98888.91;;;24.18;39.85
10712;BME280;5407;51.234;6.804;2023-04-01T05:02:43;98897.94;;;24.19;39.89
10712;BME280;5407;51.234;6.804;2023-04-01T05:05:10;98906.22;;;24.19;39.64
10712;BME280;5407;51.234;6.804;2023-04-01T05:07:37;98906.97;;;24.19;39.89
10712;BME280;5407;51.234;6.804;2023-04-01T05:10:05;98903.47;;;24.19;39.57
10712;BME280;5407;51.234;6.804;2023-04-01T05:12:32;98910.22;;;24.18;39.59
10712;BME280;5407;51.234;6.804;2023-04-01T05:15:05;98905.44;;;24.18;39.67
10712;BME280;5407;51.234;6.804;2023-04-01T05:17:32;98909.72;;;24.19;39.89
10712;BME280;5407;51.234;6.804;2023-04-01T05:19:59;98917.25;;;24.19;39.73
10712;BME280;5407;51.234;6.804;2023-04-01T05:22:26;98910.94;;;24.18;39.62
10712;BME280;5407;51.234;6.804;2023-04-01T05:24:53;98918.47;;;24.18;39.60
10712;BME280;5407;51.234;6.804;2023-04-01T05:27:20;98920.44;;;24.17;39.73
10712;BME280;5407;51.234;6.804;2023-04-01T05:29:48;98909.91;;;24.16;39.55
10712;BME280;5407;51.234;6.804;2023-04-01T05:32:35;98925.69;;;24.15;39.58
10712;BME280;5407;51.234;6.804;2023-04-01T05:35:01;98914.66;;;24.15;39.76
10712;BME280;5407;51.234;6.804;2023-04-01T05:37:28;98923.88;;;24.12;39.66
10712;BME280;5407;51.234;6.804;2023-04-01T05:39:55;98922.34;;;24.11;39.71
10712;BME280;5407;51.234;6.804;2023-04-01T05:42:24;98923.09;;;24.12;39.73
10712;BME280;5407;51.234;6.804;2023-04-01T05:44:51;98929.09;;;24.10;39.71
10712;BME280;5407;51.234;6.804;2023-04-01T05:47:38;98927.28;;;24.07;39.59
10712;BME280;5407;51.234;6.804;2023-04-01T05:50:05;98926.50;;;24.07;39.86
10712;BME280;5407;51.234;6.804;2023-04-01T05:52:32;98925.78;;;24.06;39.77
10712;BME280;5407;51.234;6.804;2023-04-01T05:54:59;98935.28;;;24.05;39.68
10712;BME280;5407;51.234;6.804;2023-04-01T05:57:26;98939.25;;;24.04;39.90
10712;BME280;5407;51.234;6.804;2023-04-01T05:59:53;98938.47;;;24.04;40.04
10712;BME280;5407;51.234;6.804;2023-04-01T06:02:20;98930.72;;;24.02;40.02
10712;BME280;5407;51.234;6.804;2023-04-01T06:04:49;98934.22;;;24.03;39.98
10712;BME280;5407;51.234;6.804;2023-04-01T06:07:17;98930.72;;;24.02;40.17
10712;BME280;5407;51.234;6.804;2023-04-01T06:09:45;98936.22;;;24.02;40.08
10712;BME280;5407;51.234;6.804;2023-04-01T06:12:33;98930.72;;;24.02;40.22
10712;BME280;5407;51.234;6.804;2023-04-01T06:15:13;98944.47;;;24.02;40.23
10712;BME280;5407;51.234;6.804;2023-04-01T06:17:53;98940.19;;;24.01;40.22
10712;BME280;5407;51.234;6.804;2023-04-01T06:20:33;98945.72;;;24.01;40.36
10712;BME280;5407;51.234;6.804;2023-04-01T06:23:10;98952.47;;;24.00;40.16
10712;BME280;5407;51.234;6.804;2023-04-01T06:25:58;98948.47;;;24.01;40.38
10712;BME280;5407;51.234;6.804;2023-04-01T06:31:57;98955.97;;;24.01;40.21
10712;BME280;5407;51.234;6.804;2023-04-01T06:34:58;98961.47;;;24.01;40.42
10712;BME280;5407;51.234;6.804;2023-04-01T06:37:55;98959.94;;;24.00;40.17
10712;BME280;5407;51.234;6.804;2023-04-01T06:40:43;98960.72;;;24.00;40.14
10712;BME280;5407;51.234;6.804;2023-04-01T06:43:19;98955.22;;;24.00;40.22
10712;BME280;5407;51.234;6.804;2023-04-01T06:46:13;98960.72;;;24.00;40.36
10712;BME280;5407;51.234;6.804;2023-04-01T06:49:21;98956.72;;;24.01;40.28
10712;BME280;5407;51.234;6.804;2023-04-01T06:52:15;98959.50;;;24.01;40.26
10712;BME280;5407;51.234;6.804;2023-04-01T06:55:21;98962.25;;;24.01;40.10
10712;BME280;5407;51.234;6.804;2023-04-01T06:58:20;98973.25;;;24.01;40.17
10712;BME280;5407;51.234;6.804;2023-04-01T07:00:49;98971.75;;;24.00;40.06
10712;BME280;5407;51.234;6.804;2023-04-01T07:03:21;98971.75;;;24.00;40.22
10712;BME280;5407;51.234;6.804;2023-04-01T07:05:49;98978.78;;;24.01;40.12
10712;BME280;5407;51.234;6.804;2023-04-01T07:08:21;98977.25;;;24.00;40.24
10712;BME280;5407;51.234;6.804;2023-04-01T07:10:54;98973.25;;;24.01;40.15
10712;BME280;5407;51.234;6.804;2023-04-01T07:13:46;98977.53;;;24.02;40.10
10712;BME280;5407;51.234;6.804;2023-04-01T07:16:19;98987.31;;;24.03;40.16
10712;BME280;5407;51.234;6.804;2023-04-01T07:18:54;98982.56;;;24.04;40.09
10712;BME280;5407;51.234;6.804;2023-04-01T07:21:29;98979.06;;;24.03;40.26
10712;BME280;5407;51.234;6.804;2023-04-01T07:24:03;98985.31;;;24.04;40.23
10712;BME280;5407;51.234;6.804;2023-04-01T07:26:39;98990.38;;;24.05;40.29
10712;BME280;5407;51.234;6.804;2023-04-01T07:29:15;98990.38;;;24.05;40.28
10712;BME280;5407;51.234;6.804;2023-04-01T07:32:22;98997.41;;;24.06;40.33
10712;BME280;5407;51.234;6.804;2023-04-01T07:35:05;99004.13;;;24.05;40.37
10712;BME280;5407;51.234;6.804;2023-04-01T07:37:39;99012.41;;;24.05;40.14
10712;BME280;5407;51.234;6.804;2023-04-01T07:40:20;99000.59;;;24.05;40.17
10712;BME280;5407;51.234;6.804;2023-04-01T07:43:01;99016.38;;;24.04;40.29
10712;BME280;5407;51.234;6.804;2023-04-01T07:45:39;99019.16;;;24.04;40.46
10712;BME280;5407;51.234;6.804;2023-04-01T07:48:19;99017.13;;;24.05;40.38
10712;BME280;5407;51.234;6.804;2023-04-01T07:50:54;99019.91;;;24.05;40.57
10712;BME280;5407;51.234;6.804;2023-04-01T07:53:32;99028.94;;;24.05;40.50
10712;BME280;5407;51.234;6.804;2023-04-01T07:56:06;99034.44;;;24.05;40.55
10712;BME280;5407;51.234;6.804;2023-04-01T07:58:47;99038.44;;;24.04;40.54
10712;BME280;5407;51.234;6.804;2023-04-01T08:01:40;99041.47;;;24.06;40.65
10712;BME280;5407;51.234;6.804;2023-04-01T08:04:23;99037.19;;;24.05;40.58
10712;BME280;5407;51.234;6.804;2023-04-01T08:06:59;99042.22;;;24.07;40.56
10712;BME280;5407;51.234;6.804;2023-04-01T08:09:36;99041.47;;;24.06;40.64
10712;BME280;5407;51.234;6.804;2023-04-01T08:12:32;99050.47;;;24.07;40.77
10712;BME280;5407;51.234;6.804;2023-04-01T08:15:27;99055.25;;;24.06;40.62
10712;BME280;5407;51.234;6.804;2023-04-01T08:18:19;99064.25;;;24.07;40.93
10712;BME280;5407;51.234;6.804;2023-04-01T08:20:52;99070.53;;;24.07;40.76
10712;BME280;5407;51.234;6.804;2023-04-01T08:23:23;99069.78;;;24.07;40.74
10712;BME280;5407;51.234;6.804;2023-04-01T08:25:53;99077.59;;;24.08;40.88
10712;BME280;5407;51.234;6.804;2023-04-01T08:28:30;99076.81;;;24.08;40.90
10712;BME280;5407;51.234;6.804;2023-04-01T08:31:06;99077.59;;;24.08;40.73
10712;BME280;5407;51.234;6.804;2023-04-01T08:33:36;99085.06;;;24.08;40.85
10712;BME280;5407;51.234;6.804;2023-04-01T08:36:11;99080.34;;;24.08;40.89
10712;BME280;5407;51.234;6.804;2023-04-01T08:38:44;99090.13;;;24.09;40.66
10712;BME280;5407;51.234;6.804;2023-04-01T08:41:35;99094.09;;;24.08;40.60
10712;BME280;5407;51.234;6.804;2023-04-01T08:44:37;99095.34;;;24.07;40.55
10712;BME280;5407;51.234;6.804;2023-04-01T08:47:32;99095.63;;;24.09;40.64
10712;BME280;5407;51.234;6.804;2023-04-01T08:53:06;99098.84;;;24.08;40.72
10712;BME280;5407;51.234;6.804;2023-04-01T08:55:59;99110.63;;;24.08;40.69
10712;BME280;5407;51.234;6.804;2023-04-01T08:58:52;99110.63;;;24.08;40.68
10712;BME280;5407;51.234;6.804;2023-04-01T09:01:34;99111.56;;;24.05;40.62
10712;BME280;5407;51.234;6.804;2023-04-01T09:04:36;99113.84;;;24.07;40.79
10712;BME280;5407;51.234;6.804;2023-04-01T09:07:18;99121.06;;;24.04;40.68
10712;BME280;5407;51.234;6.804;2023-04-01T09:13:10;99123.84;;;24.04;40.82
10712;BME280;5407;51.234;6.804;2023-04-01T09:16:11;99129.03;;;24.02;40.87
10712;BME280;5407;51.234;6.804;2023-04-01T09:19:15;99129.34;;;24.04;41.11
10712;BME280;5407;51.234;6.804;2023-04-01T09:21:58;99136.81;;;24.04;40.95
10712;BME280;5407;51.234;6.804;2023-04-01T09:24:58;99148.63;;;24.04;41.14
10712;BME280;5407;51.234;6.804;2023-04-01T09:27:30;99150.31;;;24.02;41.01
10712;BME280;5407;51.234;6.804;2023-04-01T09:30:25;99151.84;;;24.03;40.96
10712;BME280;5407;51.234;6.804;2023-04-01T09:36:20;99151.09;;;24.02;41.18
10712;BME280;5407;51.234;6.804;2023-04-01T09:38:57;99158.88;;;24.04;41.21
10712;BME280;5407;51.234;6.804;2023-04-01T09:41:31;99162.84;;;24.03;41.24
10712;BME280;5407;51.234;6.804;2023-04-01T09:44:11;99164.84;;;24.02;41.39
10712;BME280;5407;51.234;6.804;2023-04-01T09:47:09;99162.09;;;24.02;41.51
10712;BME280;5407;51.234;6.804;2023-04-01T09:50:13;99165.16;;;24.04;41.50
10712;BME280;5407;51.234;6.804;2023-04-01T09:52:47;99169.13;;;24.03;41.59
10712;BME280;5407;51.234;6.804;2023-04-01T09:55:57;99177.69;;;24.05;41.55
10712;BME280;5407;51.234;6.804;2023-04-01T10:12:21;99185.66;;;24.03;41.80
10712;BME280;5407;51.234;6.804;2023-04-01T10:15:27;99186.91;;;24.02;41.44
10712;BME280;5407;51.234;6.804;2023-04-01T10:18:33;99191.19;;;24.03;41.46
10712;BME280;5407;51.234;6.804;2023-04-01T10:21:29;99198.22;;;24.04;41.52
10712;BME280;5407;51.234;6.804;2023-04-01T10:27:33;99200.97;;;24.04;41.44
10712;BME280;5407;51.234;6.804;2023-04-01T10:30:53;99204.00;;;24.06;41.54
10712;BME280;5407;51.234;6.804;2023-04-01T10:33:48;99212.28;;;24.06;41.75
10712;BME280;5407;51.234;6.804;2023-04-01T10:36:46;99203.53;;;24.08;41.48
10712;BME280;5407;51.234;6.804;2023-04-01T10:39:38;99214.09;;;24.09;41.42
10712;BME280;5407;51.234;6.804;2023-04-01T10:52:38;99215.63;;;24.10;41.80
10712;BME280;5407;51.234;6.804;2023-04-01T10:55:37;99215.16;;;24.12;41.91
10712;BME280;5407;51.234;6.804;2023-04-01T11:11:53;99228.47;;;24.13;42.06
10712;BME280;5407;51.234;6.804;2023-04-01T11:15:01;99235.50;;;24.14;41.91
10712;BME280;5407;51.234;6.804;2023-04-01T11:23:49;99244.25;;;24.13;41.89
10712;BME280;5407;51.234;6.804;2023-04-01T11:26:29;99249.00;;;24.12;41.91
10712;BME280;5407;51.234;6.804;2023-04-01T11:29:36;99249.00;;;24.12;42.03
10712;BME280;5407;51.234;6.804;2023-04-01T11:32:42;99249.00;;;24.12;41.90
10712;BME280;5407;51.234;6.804;2023-04-01T11:35:34;99258.47;;;24.11;41.65
10712;BME280;5407;51.234;6.804;2023-04-01T11:38:14;99263.22;;;24.11;41.84
10712;BME280;5407;51.234;6.804;2023-04-01T11:40:54;99262.47;;;24.10;41.95
10712;BME280;5407;51.234;6.804;2023-04-01T11:43:49;99265.22;;;24.10;41.74
10712;BME280;5407;51.234;6.804;2023-04-01T11:46:24;99269.97;;;24.10;41.76
10712;BME280;5407;51.234;6.804;2023-04-01T11:49:00;99269.22;;;24.09;41.70
10712;BME280;5407;51.234;6.804;2023-04-01T11:52:05;99271.97;;;24.09;41.88
10712;BME280;5407;51.234;6.804;2023-04-01T11:54:55;99275.16;;;24.08;41.67
10712;BME280;5407;51.234;6.804;2023-04-01T12:00:59;99287.91;;;24.05;41.77
10712;BME280;5407;51.234;6.804;2023-04-01T12:03:56;99285.13;;;24.05;41.85
10712;BME280;5407;51.234;6.804;2023-04-01T12:06:34;99294.16;;;24.06;41.78
10712;BME280;5407;51.234;6.804;2023-04-01T12:09:10;99300.44;;;24.06;41.73
10712;BME280;5407;51.234;6.804;2023-04-01T12:11:48;99298.91;;;24.05;42.19
10712;BME280;5407;51.234;6.804;2023-04-01T12:14:20;99303.66;;;24.05;41.81
10712;BME280;5407;51.234;6.804;2023-04-01T12:16:58;99303.94;;;24.07;42.06
10712;BME280;5407;51.234;6.804;2023-04-01T12:19:37;99316.97;;;24.06;42.08
10712;BME280;5407;51.234;6.804;2023-04-01T12:22:19;99311.47;;;24.06;42.07
10712;BME280;5407;51.234;6.804;2023-04-01T12:24:52;99313.00;;;24.07;42.04
10712;BME280;5407;51.234;6.804;2023-04-01T12:27:38;99320.03;;;24.08;42.28
10712;BME280;5407;51.234;6.804;2023-04-01T12:30:32;99316.03;;;24.09;41.85
10712;BME280;5407;51.234;6.804;2023-04-01T12:33:28;99327.06;;;24.09;41.98
10712;BME280;5407;51.234;6.804;2023-04-01T12:36:10;99327.06;;;24.09;42.01
10712;BME280;5407;51.234;6.804;2023-04-01T12:38:51;99331.34;;;24.10;41.88
10712;BME280;5407;51.234;6.804;2023-04-01T12:41:32;99335.63;;;24.11;42.13
10712;BME280;5407;51.234;6.804;2023-04-01T12:44:26;99333.63;;;24.12;42.04
10712;BME280;5407;51.234;6.804;2023-04-01T12:47:32;99332.44;;;24.13;41.85
10712;BME280;5407;51.234;6.804;2023-04-01T12:50:23;99338.69;;;24.13;41.76
10712;BME280;5407;51.234;6.804;2023-04-01T12:53:06;99345.44;;;24.12;41.75
10712;BME280;5407;51.234;6.804;2023-04-01T12:55:38;99343.44;;;24.13;41.60
10712;BME280;5407;51.234;6.804;2023-04-01T13:01:29;99351.22;;;24.14;41.63
10712;BME280;5407;51.234;6.804;2023-04-01T13:04:15;99353.06;;;24.17;41.75
10712;BME280;5407;51.234;6.804;2023-04-01T13:07:12;99351.53;;;24.16;42.05
10712;BME280;5407;51.234;6.804;2023-04-01T13:09:47;99355.06;;;24.17;41.99
10712;BME280;5407;51.234;6.804;2023-04-01T13:12:39;99364.09;;;24.17;41.76
10712;BME280;5407;51.234;6.804;2023-04-01T13:15:26;99372.34;;;24.17;41.79
10712;BME280;5407;51.234;6.804;2023-04-01T13:18:03;99367.75;;;24.14;41.66
10712;BME280;5407;51.234;6.804;2023-04-01T13:20:43;99368.53;;;24.15;41.57
10712;BME280;5407;51.234;6.804;2023-04-01T13:23:27;99373.75;;;24.13;41.64
10712;BME280;5407;51.234;6.804;2023-04-01T13:26:07;99372.97;;;24.12;41.51
10712;BME280;5407;51.234;6.804;2023-04-01T13:28:39;99374.22;;;24.11;41.74
10712;BME280;5407;51.234;6.804;2023-04-01T13:31:12;99375.72;;;24.12;41.84
10712;BME280;5407;51.234;6.804;2023-04-01T13:33:47;99390.75;;;24.11;41.49
10712;BME280;5407;51.234;6.804;2023-04-01T13:36:28;99385.22;;;24.11;41.69
10712;BME280;5407;51.234;6.804;2023-04-01T13:39:15;99384.44;;;24.11;41.60
10712;BME280;5407;51.234;6.804;2023-04-01T13:42:07;99392.25;;;24.12;41.69
10712;BME280;5407;51.234;6.804;2023-04-01T13:44:41;99382.47;;;24.11;42.00
10712;BME280;5407;51.234;6.804;2023-04-01T13:47:22;99393.50;;;24.11;41.76
10712;BME280;5407;51.234;6.804;2023-04-01T13:50:17;99391.50;;;24.12;41.67
10712;BME280;5407;51.234;6.804;2023-04-01T13:53:09;99392.72;;;24.11;41.54
10712;BME280;5407;51.234;6.804;2023-04-01T13:55:49;99403.44;;;24.09;41.61
10712;BME280;5407;51.234;6.804;2023-04-01T13:58:53;99404.22;;;24.09;41.61
10712;BME280;5407;51.234;6.804;2023-04-01T14:01:31;99406.66;;;24.07;41.56
10712;BME280;5407;51.234;6.804;2023-04-01T14:04:23;99406.66;;;24.07;41.71
10712;BME280;5407;51.234;6.804;2023-04-01T14:07:00;99407.41;;;24.08;41.78
10712;BME280;5407;51.234;6.804;2023-04-01T14:09:48;99410.19;;;24.08;41.62
10712;BME280;5407;51.234;6.804;2023-04-01T14:12:29;99414.94;;;24.07;41.54
10712;BME280;5407;51.234;6.804;2023-04-01T14:15:07;99417.69;;;24.07;41.90
10712;BME280;5407;51.234;6.804;2023-04-01T14:17:46;99409.88;;;24.06;41.74
10712;BME280;5407;51.234;6.804;2023-04-01T14:20:27;99423.19;;;24.07;41.50
10712;BME280;5407;51.234;6.804;2023-04-01T14:23:16;99431.47;;;24.07;41.66
10712;BME280;5407;51.234;6.804;2023-04-01T14:26:07;99428.72;;;24.07;41.62
10712;BME280;5407;51.234;6.804;2023-04-01T14:28:45;99438.22;;;24.06;41.69
10712;BME280;5407;51.234;6.804;2023-04-01T14:31:23;99434.22;;;24.07;41.59
10712;BME280;5407;51.234;6.804;2023-04-01T14:34:00;99436.66;;;24.05;41.51
10712;BME280;5407;51.234;6.804;2023-04-01T14:36:43;99429.94;;;24.06;41.59
10712;BME280;5407;51.234;6.804;2023-04-01T14:39:54;99439.72;;;24.07;41.71
10712;BME280;5407;51.234;6.804;2023-04-01T14:42:41;99442.94;;;24.06;41.75
10712;BME280;5407;51.234;6.804;2023-04-01T14:48:32;99449.22;;;24.06;41.46
10712;BME280;5407;51.234;6.804;2023-04-01T14:51:04;99453.22;;;24.05;41.67
10712;BME280;5407;51.234;6.804;2023-04-01T14:53:38;99445.69;;;24.06;41.52
10712;BME280;5407;51.234;6.804;2023-04-01T14:56:07;99444.47;;;24.07;41.41
10712;BME280;5407;51.234;6.804;2023-04-01T14:58:43;99456.25;;;24.07;41.62
10712;BME280;5407;51.234;6.804;2023-04-01T15:01:25;99453.97;;;24.06;41.65
10712;BME280;5407;51.234;6.804;2023-04-01T15:04:05;99459.47;;;24.06;41.64
10712;BME280;5407;51.234;6.804;2023-04-01T15:07:02;99477.09;;;24.08;41.70
10712;BME280;5407;51.234;6.804;2023-04-01T15:09:38;99467.28;;;24.07;41.63
10712;BME280;5407;51.234;6.804;2023-04-01T15:12:18;99476.78;;;24.06;41.64
10712;BME280;5407;51.234;6.804;2023-04-01T15:15:00;99478.75;;;24.06;41.61
10712;BME280;5407;51.234;6.804;2023-04-01T15:17:56;99471.25;;;24.06;41.45